sensor_id;sensor_type;location;lat;lon;timestamp;P1;durP1;ratioP1;P2;durP2;ratioP2
51122;SDS011;37162;41.724;13.346;2023-05-10T00:01:24;3.97;;;2.83;;
51122;SDS011;37162;41.724;13.346;2023-05-10T00:03:49;3.97;;;3.08;;
51122;SDS011;37162;41.724;13.346;2023-05-10T00:06:14;3.45;;;2.85;;
51122;SDS011;37162;41.724;13.346;2023-05-10T00:08:40;2.88;;;2.63;;
51122;SDS011;37162;41.724;13.346;2023-05-10T00:11:05;3.10;;;2.20;;
51122;SDS011;37162;41.724;13.346;2023-05-10T00:13:31;2.63;;;2.40;;
51122;SDS011;37162;41.724;13.346;2023-05-10T00:15:57;2.65;;;2.42;;
51122;SDS011;37162;41.724;13.346;2023-05-10T00:18:22;2.30;;;2.10;;
51122;SDS011;37162;41.724;13.346;2023-05-10T00:20:48;2.40;;;2.20;;
51122;SDS011;37162;41.724;13.346;2023-05-10T00:23:13;2.85;;;2.55;;
51122;SDS011;37162;41.724;13.346;2023-05-10T00:25:39;2.40;;;2.20;;
51122;SDS011;37162;41.724;13.346;2023-05-10T00:28:05;2.55;;;2.15;;
51122;SDS011;37162;41.724;13.346;2023-05-10T00:30:30;2.50;;;2.20;;
51122;SDS011;37162;41.724;13.346;2023-05-10T00:32:55;2.63;;;2.42;;
51122;SDS011;37162;41.724;13.346;2023-05-10T00:35:21;3.35;;;2.22;;
51122;SDS011;37162;41.724;13.346;2023-05-10T00:37:46;2.17;;;2.00;;
51122;SDS011;37162;41.724;13.346;2023-05-10T00:40:12;2.75;;;2.50;;
51122;SDS011;37162;41.724;13.346;2023-05-10T00:42:38;2.78;;;2.15;;
51122;SDS011;37162;41.724;13.346;2023-05-10T00:45:04;2.50;;;2.30;;
51122;SDS011;37162;41.724;13.346;2023-05-10T00:47:30;2.17;;;1.98;;
51122;SDS011;37162;41.724;13.346;2023-05-10T00:49:56;3.13;;;2.85;;
51122;SDS011;37162;41.724;13.346;2023-05-10T00:52:22;3.03;;;2.40;;
51122;SDS011;37162;41.724;13.346;2023-05-10T00:54:49;2.22;;;2.03;;
51122;SDS011;37162;41.724;13.346;2023-05-10T00:57:16;2.17;;;1.98;;
51122;SDS011;37162;41.724;13.346;2023-05-10T00:59:42;3.22;;;2.50;;
51122;SDS011;37162;41.724;13.346;2023-05-10T01:02:08;2.20;;;2.00;;
51122;SDS011;37162;41.724;13.346;2023-05-10T01:04:33;2.33;;;2.10;;
51122;SDS011;37162;41.724;13.346;2023-05-10T01:07:00;4.43;;;2.10;;
51122;SDS011;37162;41.724;13.346;2023-05-10T01:09:26;3.05;;;2.42;;
51122;SDS011;37162;41.724;13.346;2023-05-10T01:11:53;2.38;;;2.17;;
51122;SDS011;37162;41.724;13.346;2023-05-10T01:14:20;2.58;;;2.38;;
51122;SDS011;37162;41.724;13.346;2023-05-10T01:16:47;2.03;;;1.88;;
51122;SDS011;37162;41.724;13.346;2023-05-10T01:19:24;2.35;;;2.15;;
51122;SDS011;37162;41.724;13.346;2023-05-10T01:38:02;2.70;;;2.30;;
51122;SDS011;37162;41.724;13.346;2023-05-10T01:43:22;2.33;;;2.10;;
51122;SDS011;37162;41.724;13.346;2023-05-10T01:46:04;2.40;;;1.95;;
51122;SDS011;37162;41.724;13.346;2023-05-10T01:48:46;2.55;;;2.35;;
51122;SDS011;37162;41.724;13.346;2023-05-10T01:51:17;4.93;;;3.25;;
51122;SDS011;37162;41.724;13.346;2023-05-10T01:53:47;4.63;;;2.47;;
51122;SDS011;37162;41.724;13.346;2023-05-10T01:56:15;1.98;;;1.83;;
51122;SDS011;37162;41.724;13.346;2023-05-10T01:58:43;2.22;;;2.03;;
51122;SDS011;37162;41.724;13.346;2023-05-10T02:01:12;2.17;;;1.98;;
51122;SDS011;37162;41.724;13.346;2023-05-10T02:03:38;2.35;;;2.15;;
51122;SDS011;37162;41.724;13.346;2023-05-10T02:06:07;2.20;;;2.00;;
51122;SDS011;37162;41.724;13.346;2023-05-10T02:08:35;2.47;;;2.28;;
51122;SDS011;37162;41.724;13.346;2023-05-10T02:11:02;2.55;;;2.35;;
51122;SDS011;37162;41.724;13.346;2023-05-10T02:13:30;2.20;;;1.88;;
51122;SDS011;37162;41.724;13.346;2023-05-10T02:15:59;3.10;;;2.17;;
51122;SDS011;37162;41.724;13.346;2023-05-10T02:18:26;2.53;;;2.33;;
51122;SDS011;37162;41.724;13.346;2023-05-10T02:20:52;3.72;;;2.00;;
51122;SDS011;37162;41.724;13.346;2023-05-10T02:23:20;2.42;;;2.22;;
51122;SDS011;37162;41.724;13.346;2023-05-10T02:25:48;2.40;;;2.20;;
51122;SDS011;37162;41.724;13.346;2023-05-10T02:28:16;2.70;;;2.50;;
51122;SDS011;37162;41.724;13.346;2023-05-10T02:30:43;2.58;;;2.38;;
51122;SDS011;37162;41.724;13.346;2023-05-10T02:33:09;2.63;;;2.10;;
51122;SDS011;37162;41.724;13.346;2023-05-10T02:35:36;2.30;;;2.10;;
51122;SDS011;37162;41.724;13.346;2023-05-10T02:38:03;2.63;;;2.40;;
51122;SDS011;37162;41.724;13.346;2023-05-10T02:40:30;3.05;;;2.50;;
51122;SDS011;37162;41.724;13.346;2023-05-10T02:42:58;2.58;;;2.20;;
51122;SDS011;37162;41.724;13.346;2023-05-10T02:45:27;2.97;;;2.67;;
51122;SDS011;37162;41.724;13.346;2023-05-10T02:47:55;2.47;;;2.28;;
51122;SDS011;37162;41.724;13.346;2023-05-10T02:50:21;4.45;;;2.28;;
51122;SDS011;37162;41.724;13.346;2023-05-10T02:52:51;3.15;;;2.50;;
51122;SDS011;37162;41.724;13.346;2023-05-10T02:55:19;3.42;;;3.13;;
51122;SDS011;37162;41.724;13.346;2023-05-10T02:57:55;2.50;;;2.30;;
51122;SDS011;37162;41.724;13.346;2023-05-10T03:00:24;4.38;;;2.60;;
51122;SDS011;37162;41.724;13.346;2023-05-10T03:02:50;2.28;;;2.08;;
51122;SDS011;37162;41.724;13.346;2023-05-10T03:05:15;3.25;;;2.60;;
51122;SDS011;37162;41.724;13.346;2023-05-10T03:07:40;2.22;;;2.10;;
51122;SDS011;37162;41.724;13.346;2023-05-10T03:10:06;2.40;;;2.20;;
51122;SDS011;37162;41.724;13.346;2023-05-10T03:18:15;2.47;;;2.28;;
51122;SDS011;37162;41.724;13.346;2023-05-10T03:21:01;2.72;;;2.50;;
51122;SDS011;37162;41.724;13.346;2023-05-10T03:25:59;3.00;;;2.70;;
51122;SDS011;37162;41.724;13.346;2023-05-10T03:28:26;2.83;;;2.53;;
51122;SDS011;37162;41.724;13.346;2023-05-10T03:30:54;2.63;;;2.20;;
51122;SDS011;37162;41.724;13.346;2023-05-10T03:33:21;2.72;;;2.47;;
51122;SDS011;37162;41.724;13.346;2023-05-10T03:35:47;3.63;;;2.60;;
51122;SDS011;37162;41.724;13.346;2023-05-10T03:38:13;2.67;;;2.47;;
51122;SDS011;37162;41.724;13.346;2023-05-10T03:40:38;2.40;;;2.20;;
51122;SDS011;37162;41.724;13.346;2023-05-10T03:43:04;2.63;;;2.30;;
51122;SDS011;37162;41.724;13.346;2023-05-10T03:45:29;2.65;;;2.10;;
51122;SDS011;37162;41.724;13.346;2023-05-10T03:47:56;2.45;;;2.17;;
51122;SDS011;37162;41.724;13.346;2023-05-10T03:50:22;2.55;;;2.35;;
51122;SDS011;37162;41.724;13.346;2023-05-10T03:52:47;2.20;;;2.00;;
51122;SDS011;37162;41.724;13.346;2023-05-10T03:55:13;2.10;;;1.90;;
51122;SDS011;37162;41.724;13.346;2023-05-10T03:57:38;3.65;;;2.35;;
51122;SDS011;37162;41.724;13.346;2023-05-10T04:00:04;2.70;;;2.50;;
51122;SDS011;37162;41.724;13.346;2023-05-10T04:02:30;2.28;;;2.08;;
51122;SDS011;37162;41.724;13.346;2023-05-10T04:04:56;3.35;;;2.47;;
51122;SDS011;37162;41.724;13.346;2023-05-10T04:07:21;2.30;;;2.10;;
51122;SDS011;37162;41.724;13.346;2023-05-10T04:09:47;2.25;;;2.05;;
51122;SDS011;37162;41.724;13.346;2023-05-10T04:12:12;2.40;;;2.20;;
51122;SDS011;37162;41.724;13.346;2023-05-10T04:14:38;2.38;;;2.17;;
51122;SDS011;37162;41.724;13.346;2023-05-10T04:17:03;3.42;;;2.28;;
51122;SDS011;37162;41.724;13.346;2023-05-10T04:19:32;2.88;;;2.40;;
51122;SDS011;37162;41.724;13.346;2023-05-10T04:21:58;1.90;;;1.80;;
51122;SDS011;37162;41.724;13.346;2023-05-10T04:24:24;3.08;;;2.13;;
51122;SDS011;37162;41.724;13.346;2023-05-10T04:26:49;4.13;;;1.92;;
51122;SDS011;37162;41.724;13.346;2023-05-10T04:29:15;2.60;;;2.40;;
51122;SDS011;37162;41.724;13.346;2023-05-10T04:31:41;4.55;;;3.42;;
51122;SDS011;37162;41.724;13.346;2023-05-10T04:34:06;2.92;;;2.38;;
51122;SDS011;37162;41.724;13.346;2023-05-10T04:36:31;2.30;;;2.10;;
51122;SDS011;37162;41.724;13.346;2023-05-10T04:39:01;2.58;;;2.38;;
51122;SDS011;37162;41.724;13.346;2023-05-10T04:41:30;2.30;;;2.10;;
51122;SDS011;37162;41.724;13.346;2023-05-10T04:43:56;2.40;;;2.20;;
51122;SDS011;37162;41.724;13.346;2023-05-10T04:46:21;2.30;;;2.10;;
51122;SDS011;37162;41.724;13.346;2023-05-10T04:48:47;2.63;;;2.35;;
51122;SDS011;37162;41.724;13.346;2023-05-10T04:51:13;2.33;;;2.13;;
51122;SDS011;37162;41.724;13.346;2023-05-10T04:53:38;2.40;;;2.20;;
51122;SDS011;37162;41.724;13.346;2023-05-10T04:56:04;2.63;;;2.42;;
51122;SDS011;37162;41.724;13.346;2023-05-10T04:58:29;2.45;;;2.25;;
51122;SDS011;37162;41.724;13.346;2023-05-10T05:00:55;1.92;;;1.83;;
51122;SDS011;37162;41.724;13.346;2023-05-10T05:03:20;2.40;;;2.20;;
51122;SDS011;37162;41.724;13.346;2023-05-10T05:05:47;2.38;;;2.17;;
51122;SDS011;37162;41.724;13.346;2023-05-10T05:08:12;2.63;;;2.42;;
51122;SDS011;37162;41.724;13.346;2023-05-10T05:10:38;3.92;;;2.10;;
51122;SDS011;37162;41.724;13.346;2023-05-10T05:13:18;2.13;;;1.92;;
51122;SDS011;37162;41.724;13.346;2023-05-10T05:15:53;1.83;;;1.73;;
51122;SDS011;37162;41.724;13.346;2023-05-10T05:18:21;5.35;;;1.90;;
51122;SDS011;37162;41.724;13.346;2023-05-10T05:20:46;2.38;;;2.15;;
51122;SDS011;37162;41.724;13.346;2023-05-10T05:23:12;3.25;;;2.95;;
51122;SDS011;37162;41.724;13.346;2023-05-10T05:25:37;2.42;;;2.17;;
51122;SDS011;37162;41.724;13.346;2023-05-10T05:28:03;4.07;;;2.22;;
51122;SDS011;37162;41.724;13.346;2023-05-10T05:30:28;3.40;;;2.50;;
51122;SDS011;37162;41.724;13.346;2023-05-10T05:32:54;3.03;;;2.40;;
51122;SDS011;37162;41.724;13.346;2023-05-10T05:35:19;2.95;;;2.67;;
51122;SDS011;37162;41.724;13.346;2023-05-10T05:37:45;4.97;;;2.47;;
51122;SDS011;37162;41.724;13.346;2023-05-10T05:40:12;2.15;;;2.00;;
51122;SDS011;37162;41.724;13.346;2023-05-10T05:42:38;4.43;;;2.67;;
51122;SDS011;37162;41.724;13.346;2023-05-10T05:45:03;2.40;;;2.20;;
51122;SDS011;37162;41.724;13.346;2023-05-10T05:47:29;2.63;;;2.42;;
51122;SDS011;37162;41.724;13.346;2023-05-10T05:49:54;4.10;;;2.15;;
51122;SDS011;37162;41.724;13.346;2023-05-10T05:52:20;5.80;;;2.65;;
51122;SDS011;37162;41.724;13.346;2023-05-10T05:54:46;2.85;;;2.60;;
51122;SDS011;37162;41.724;13.346;2023-05-10T05:57:11;2.70;;;2.50;;
51122;SDS011;37162;41.724;13.346;2023-05-10T05:59:37;2.60;;;2.40;;
51122;SDS011;37162;41.724;13.346;2023-05-10T06:02:07;2.60;;;2.40;;
51122;SDS011;37162;41.724;13.346;2023-05-10T06:04:33;2.97;;;2.67;;
51122;SDS011;37162;41.724;13.346;2023-05-10T06:06:58;3.80;;;2.70;;
51122;SDS011;37162;41.724;13.346;2023-05-10T06:09:24;2.95;;;2.33;;
51122;SDS011;37162;41.724;13.346;2023-05-10T06:11:49;2.72;;;2.53;;
51122;SDS011;37162;41.724;13.346;2023-05-10T06:14:14;2.55;;;2.35;;
51122;SDS011;37162;41.724;13.346;2023-05-10T06:16:40;3.55;;;2.45;;
51122;SDS011;37162;41.724;13.346;2023-05-10T06:19:05;3.17;;;2.88;;
51122;SDS011;37162;41.724;13.346;2023-05-10T06:21:31;3.50;;;3.20;;
51122;SDS011;37162;41.724;13.346;2023-05-10T06:23:56;3.33;;;2.80;;
51122;SDS011;37162;41.724;13.346;2023-05-10T06:26:22;2.78;;;2.58;;
51122;SDS011;37162;41.724;13.346;2023-05-10T06:28:47;6.22;;;2.90;;
51122;SDS011;37162;41.724;13.346;2023-05-10T06:31:13;2.10;;;1.90;;
51122;SDS011;37162;41.724;13.346;2023-05-10T06:33:38;2.50;;;2.28;;
51122;SDS011;37162;41.724;13.346;2023-05-10T06:36:04;2.45;;;2.22;;
51122;SDS011;37162;41.724;13.346;2023-05-10T06:38:30;2.38;;;2.15;;
51122;SDS011;37162;41.724;13.346;2023-05-10T06:40:55;3.35;;;2.70;;
51122;SDS011;37162;41.724;13.346;2023-05-10T06:43:21;3.22;;;2.65;;
51122;SDS011;37162;41.724;13.346;2023-05-10T06:45:47;2.42;;;2.22;;
51122;SDS011;37162;41.724;13.346;2023-05-10T06:48:13;2.97;;;2.67;;
51122;SDS011;37162;41.724;13.346;2023-05-10T06:50:38;3.20;;;2.75;;
51122;SDS011;37162;41.724;13.346;2023-05-10T06:53:04;2.97;;;2.63;;
51122;SDS011;37162;41.724;13.346;2023-05-10T06:55:29;2.67;;;2.42;;
51122;SDS011;37162;41.724;13.346;2023-05-10T06:57:55;2.72;;;2.50;;
51122;SDS011;37162;41.724;13.346;2023-05-10T07:00:20;5.00;;;3.35;;
51122;SDS011;37162;41.724;13.346;2023-05-10T07:02:46;4.03;;;3.20;;
51122;SDS011;37162;41.724;13.346;2023-05-10T07:05:12;4.45;;;3.72;;
51122;SDS011;37162;41.724;13.346;2023-05-10T07:07:37;3.55;;;3.00;;
51122;SDS011;37162;41.724;13.346;2023-05-10T07:10:03;3.17;;;2.88;;
51122;SDS011;37162;41.724;13.346;2023-05-10T07:12:29;5.53;;;3.22;;
51122;SDS011;37162;41.724;13.346;2023-05-10T07:14:55;4.15;;;2.90;;
51122;SDS011;37162;41.724;13.346;2023-05-10T07:17:20;3.85;;;3.30;;
51122;SDS011;37162;41.724;13.346;2023-05-10T07:19:46;3.13;;;2.88;;
51122;SDS011;37162;41.724;13.346;2023-05-10T07:22:11;3.33;;;2.97;;
51122;SDS011;37162;41.724;13.346;2023-05-10T07:24:37;4.47;;;3.13;;
51122;SDS011;37162;41.724;13.346;2023-05-10T07:27:02;4.40;;;3.97;;
51122;SDS011;37162;41.724;13.346;2023-05-10T07:29:28;7.32;;;3.53;;
51122;SDS011;37162;41.724;13.346;2023-05-10T07:31:53;5.05;;;4.13;;
51122;SDS011;37162;41.724;13.346;2023-05-10T07:34:19;5.18;;;4.68;;
51122;SDS011;37162;41.724;13.346;2023-05-10T07:36:45;4.80;;;4.22;;
51122;SDS011;37162;41.724;13.346;2023-05-10T07:39:10;4.30;;;3.85;;
51122;SDS011;37162;41.724;13.346;2023-05-10T07:41:35;4.72;;;4.22;;
51122;SDS011;37162;41.724;13.346;2023-05-10T07:44:02;5.00;;;4.07;;
51122;SDS011;37162;41.724;13.346;2023-05-10T07:46:28;4.55;;;3.70;;
51122;SDS011;37162;41.724;13.346;2023-05-10T07:48:54;3.97;;;3.30;;
51122;SDS011;37162;41.724;13.346;2023-05-10T07:51:19;4.82;;;4.03;;
51122;SDS011;37162;41.724;13.346;2023-05-10T07:53:45;4.25;;;3.22;;
51122;SDS011;37162;41.724;13.346;2023-05-10T07:56:26;4.13;;;3.38;;
51122;SDS011;37162;41.724;13.346;2023-05-10T07:59:00;4.07;;;3.60;;
51122;SDS011;37162;41.724;13.346;2023-05-10T08:01:31;3.83;;;3.42;;
51122;SDS011;37162;41.724;13.346;2023-05-10T08:03:58;7.43;;;3.90;;
51122;SDS011;37162;41.724;13.346;2023-05-10T08:06:23;4.28;;;3.63;;
51122;SDS011;37162;41.724;13.346;2023-05-10T08:08:51;4.65;;;3.63;;
51122;SDS011;37162;41.724;13.346;2023-05-10T08:11:18;3.47;;;3.17;;
51122;SDS011;37162;41.724;13.346;2023-05-10T08:13:48;3.53;;;3.20;;
51122;SDS011;37162;41.724;13.346;2023-05-10T08:16:15;3.95;;;3.15;;
51122;SDS011;37162;41.724;13.346;2023-05-10T08:18:41;3.22;;;2.60;;
51122;SDS011;37162;41.724;13.346;2023-05-10T08:21:08;4.80;;;2.67;;
51122;SDS011;37162;41.724;13.346;2023-05-10T08:23:36;4.70;;;2.75;;
51122;SDS011;37162;41.724;13.346;2023-05-10T08:26:02;3.53;;;3.13;;
51122;SDS011;37162;41.724;13.346;2023-05-10T08:28:27;3.33;;;3.00;;
51122;SDS011;37162;41.724;13.346;2023-05-10T08:30:53;4.85;;;3.45;;
51122;SDS011;37162;41.724;13.346;2023-05-10T08:33:18;3.45;;;2.55;;
51122;SDS011;37162;41.724;13.346;2023-05-10T08:35:44;3.20;;;2.90;;
51122;SDS011;37162;41.724;13.346;2023-05-10T08:38:10;4.65;;;2.78;;
51122;SDS011;37162;41.724;13.346;2023-05-10T08:40:36;3.78;;;3.35;;
51122;SDS011;37162;41.724;13.346;2023-05-10T08:45:32;3.53;;;3.22;;
51122;SDS011;37162;41.724;13.346;2023-05-10T08:48:01;3.85;;;3.45;;
51122;SDS011;37162;41.724;13.346;2023-05-10T08:50:27;4.93;;;3.17;;
51122;SDS011;37162;41.724;13.346;2023-05-10T08:52:55;3.20;;;2.90;;
51122;SDS011;37162;41.724;13.346;2023-05-10T08:55:24;3.20;;;2.90;;
51122;SDS011;37162;41.724;13.346;2023-05-10T08:57:49;3.60;;;3.13;;
51122;SDS011;37162;41.724;13.346;2023-05-10T09:00:15;3.30;;;2.70;;
51122;SDS011;37162;41.724;13.346;2023-05-10T09:02:42;3.90;;;3.13;;
51122;SDS011;37162;41.724;13.346;2023-05-10T09:05:09;3.75;;;3.25;;
51122;SDS011;37162;41.724;13.346;2023-05-10T09:07:35;4.90;;;3.10;;
51122;SDS011;37162;41.724;13.346;2023-05-10T09:10:01;3.60;;;3.10;;
51122;SDS011;37162;41.724;13.346;2023-05-10T09:12:28;7.22;;;3.53;;
51122;SDS011;37162;41.724;13.346;2023-05-10T09:14:53;2.75;;;2.53;;
51122;SDS011;37162;41.724;13.346;2023-05-10T09:17:20;2.97;;;2.72;;
51122;SDS011;37162;41.724;13.346;2023-05-10T09:19:48;3.33;;;3.00;;
51122;SDS011;37162;41.724;13.346;2023-05-10T09:22:13;3.05;;;2.75;;
51122;SDS011;37162;41.724;13.346;2023-05-10T09:24:39;2.85;;;2.65;;
51122;SDS011;37162;41.724;13.346;2023-05-10T09:27:09;3.30;;;2.97;;
51122;SDS011;37162;41.724;13.346;2023-05-10T09:29:43;5.28;;;3.00;;
51122;SDS011;37162;41.724;13.346;2023-05-10T09:32:10;7.15;;;3.28;;
51122;SDS011;37162;41.724;13.346;2023-05-10T09:34:35;2.85;;;2.60;;
51122;SDS011;37162;41.724;13.346;2023-05-10T09:37:04;6.90;;;2.80;;
51122;SDS011;37162;41.724;13.346;2023-05-10T09:39:31;3.63;;;3.00;;
51122;SDS011;37162;41.724;13.346;2023-05-10T09:42:07;4.35;;;3.08;;
51122;SDS011;37162;41.724;13.346;2023-05-10T09:44:34;4.35;;;3.47;;
51122;SDS011;37162;41.724;13.346;2023-05-10T09:47:00;3.45;;;2.88;;
51122;SDS011;37162;41.724;13.346;2023-05-10T09:49:26;4.10;;;3.30;;
51122;SDS011;37162;41.724;13.346;2023-05-10T09:52:02;4.18;;;2.63;;
51122;SDS011;37162;41.724;13.346;2023-05-10T09:54:29;5.82;;;3.45;;
51122;SDS011;37162;41.724;13.346;2023-05-10T09:56:55;3.22;;;2.83;;
51122;SDS011;37162;41.724;13.346;2023-05-10T09:59:20;5.20;;;2.80;;
51122;SDS011;37162;41.724;13.346;2023-05-10T10:01:49;3.47;;;2.70;;
51122;SDS011;37162;41.724;13.346;2023-05-10T10:04:19;3.33;;;2.85;;
51122;SDS011;37162;41.724;13.346;2023-05-10T10:06:45;3.47;;;3.10;;
51122;SDS011;37162;41.724;13.346;2023-05-10T10:09:11;8.15;;;2.72;;
51122;SDS011;37162;41.724;13.346;2023-05-10T10:11:38;4.70;;;3.30;;
51122;SDS011;37162;41.724;13.346;2023-05-10T10:14:04;3.40;;;3.10;;
51122;SDS011;37162;41.724;13.346;2023-05-10T10:16:30;5.15;;;2.90;;
51122;SDS011;37162;41.724;13.346;2023-05-10T10:18:57;5.00;;;2.67;;
51122;SDS011;37162;41.724;13.346;2023-05-10T10:21:23;3.20;;;2.90;;
51122;SDS011;37162;41.724;13.346;2023-05-10T10:23:49;4.68;;;2.72;;
51122;SDS011;37162;41.724;13.346;2023-05-10T10:26:16;3.30;;;2.65;;
51122;SDS011;37162;41.724;13.346;2023-05-10T10:31:41;4.03;;;3.05;;
51122;SDS011;37162;41.724;13.346;2023-05-10T10:36:51;3.20;;;2.90;;
51122;SDS011;37162;41.724;13.346;2023-05-10T10:39:17;2.83;;;2.50;;
51122;SDS011;37162;41.724;13.346;2023-05-10T10:41:50;3.03;;;2.72;;
51122;SDS011;37162;41.724;13.346;2023-05-10T10:54:40;3.22;;;2.90;;
51122;SDS011;37162;41.724;13.346;2023-05-10T10:57:10;3.30;;;2.50;;
51122;SDS011;37162;41.724;13.346;2023-05-10T10:59:41;3.15;;;2.65;;
51122;SDS011;37162;41.724;13.346;2023-05-10T11:02:10;10.15;;;3.15;;
51122;SDS011;37162;41.724;13.346;2023-05-10T11:04:59;4.13;;;2.50;;
51122;SDS011;37162;41.724;13.346;2023-05-10T11:07:25;3.95;;;3.15;;
51122;SDS011;37162;41.724;13.346;2023-05-10T11:09:51;5.22;;;3.53;;
51122;SDS011;37162;41.724;13.346;2023-05-10T11:12:16;4.75;;;2.78;;
51122;SDS011;37162;41.724;13.346;2023-05-10T11:14:42;2.92;;;2.45;;
51122;SDS011;37162;41.724;13.346;2023-05-10T11:20:10;3.33;;;3.03;;
51122;SDS011;37162;41.724;13.346;2023-05-10T11:22:51;2.83;;;2.50;;
51122;SDS011;37162;41.724;13.346;2023-05-10T11:25:17;3.72;;;2.70;;
51122;SDS011;37162;41.724;13.346;2023-05-10T11:27:43;4.18;;;2.88;;
51122;SDS011;37162;41.724;13.346;2023-05-10T11:30:10;3.95;;;2.70;;
51122;SDS011;37162;41.724;13.346;2023-05-10T11:32:39;6.32;;;3.47;;
51122;SDS011;37162;41.724;13.346;2023-05-10T11:35:08;4.32;;;3.40;;
51122;SDS011;37162;41.724;13.346;2023-05-10T11:37:35;3.53;;;3.15;;
51122;SDS011;37162;41.724;13.346;2023-05-10T11:40:01;4.88;;;3.65;;
51122;SDS011;37162;41.724;13.346;2023-05-10T11:42:27;4.57;;;3.10;;
51122;SDS011;37162;41.724;13.346;2023-05-10T11:44:53;4.03;;;3.00;;
51122;SDS011;37162;41.724;13.346;2023-05-10T11:47:19;3.08;;;2.63;;
51122;SDS011;37162;41.724;13.346;2023-05-10T11:49:45;5.07;;;2.60;;
51122;SDS011;37162;41.724;13.346;2023-05-10T11:52:11;4.13;;;2.88;;
51122;SDS011;37162;41.724;13.346;2023-05-10T11:54:37;4.30;;;2.75;;
51122;SDS011;37162;41.724;13.346;2023-05-10T11:57:02;5.25;;;2.47;;
51122;SDS011;37162;41.724;13.346;2023-05-10T11:59:28;2.72;;;2.03;;
51122;SDS011;37162;41.724;13.346;2023-05-10T12:01:54;3.08;;;2.17;;
51122;SDS011;37162;41.724;13.346;2023-05-10T12:04:20;4.07;;;2.25;;
51122;SDS011;37162;41.724;13.346;2023-05-10T12:06:46;3.10;;;1.90;;
51122;SDS011;37162;41.724;13.346;2023-05-10T12:09:11;2.75;;;2.25;;
51122;SDS011;37162;41.724;13.346;2023-05-10T12:11:40;3.53;;;2.20;;
51122;SDS011;37162;41.724;13.346;2023-05-10T12:14:05;2.97;;;2.10;;
51122;SDS011;37162;41.724;13.346;2023-05-10T12:16:31;3.83;;;2.22;;
51122;SDS011;37162;41.724;13.346;2023-05-10T12:18:57;2.83;;;2.22;;
51122;SDS011;37162;41.724;13.346;2023-05-10T12:21:24;2.13;;;1.70;;
51122;SDS011;37162;41.724;13.346;2023-05-10T12:23:51;2.15;;;1.98;;
51122;SDS011;37162;41.724;13.346;2023-05-10T12:26:21;4.32;;;2.33;;
51122;SDS011;37162;41.724;13.346;2023-05-10T12:28:47;2.10;;;1.88;;
51122;SDS011;37162;41.724;13.346;2023-05-10T12:31:12;2.38;;;2.00;;
51122;SDS011;37162;41.724;13.346;2023-05-10T12:33:38;1.88;;;1.65;;
51122;SDS011;37162;41.724;13.346;2023-05-10T12:36:07;1.55;;;1.42;;
51122;SDS011;37162;41.724;13.346;2023-05-10T12:41:06;3.83;;;1.73;;
51122;SDS011;37162;41.724;13.346;2023-05-10T12:43:33;1.85;;;1.75;;
51122;SDS011;37162;41.724;13.346;2023-05-10T12:48:31;1.90;;;1.63;;
51122;SDS011;37162;41.724;13.346;2023-05-10T12:50:58;1.95;;;1.80;;
51122;SDS011;37162;41.724;13.346;2023-05-10T12:53:24;2.25;;;1.88;;
51122;SDS011;37162;41.724;13.346;2023-05-10T12:55:50;3.00;;;2.10;;
51122;SDS011;37162;41.724;13.346;2023-05-10T12:58:15;8.82;;;1.70;;
51122;SDS011;37162;41.724;13.346;2023-05-10T13:00:41;1.70;;;1.52;;
51122;SDS011;37162;41.724;13.346;2023-05-10T13:03:06;1.90;;;1.50;;
51122;SDS011;37162;41.724;13.346;2023-05-10T13:05:34;1.40;;;1.30;;
51122;SDS011;37162;41.724;13.346;2023-05-10T13:08:00;1.60;;;1.50;;
51122;SDS011;37162;41.724;13.346;2023-05-10T13:10:26;1.58;;;1.48;;
51122;SDS011;37162;41.724;13.346;2023-05-10T13:12:51;1.92;;;1.83;;
51122;SDS011;37162;41.724;13.346;2023-05-10T13:15:17;1.83;;;1.50;;
51122;SDS011;37162;41.724;13.346;2023-05-10T13:17:42;1.85;;;1.73;;
51122;SDS011;37162;41.724;13.346;2023-05-10T13:20:08;2.40;;;1.58;;
51122;SDS011;37162;41.724;13.346;2023-05-10T13:22:34;3.03;;;1.83;;
51122;SDS011;37162;41.724;13.346;2023-05-10T13:25:00;3.38;;;1.83;;
51122;SDS011;37162;41.724;13.346;2023-05-10T13:27:26;4.32;;;1.70;;
51122;SDS011;37162;41.724;13.346;2023-05-10T13:29:52;3.25;;;1.60;;
51122;SDS011;37162;41.724;13.346;2023-05-10T13:32:18;2.22;;;1.83;;
51122;SDS011;37162;41.724;13.346;2023-05-10T13:34:43;1.70;;;1.60;;
51122;SDS011;37162;41.724;13.346;2023-05-10T13:37:09;2.03;;;1.40;;
51122;SDS011;37162;41.724;13.346;2023-05-10T13:39:34;1.67;;;1.58;;
51122;SDS011;37162;41.724;13.346;2023-05-10T13:42:02;2.47;;;1.60;;
51122;SDS011;37162;41.724;13.346;2023-05-10T13:44:28;5.65;;;1.85;;
51122;SDS011;37162;41.724;13.346;2023-05-10T13:46:53;2.40;;;1.80;;
51122;SDS011;37162;41.724;13.346;2023-05-10T13:49:19;2.95;;;1.98;;
51122;SDS011;37162;41.724;13.346;2023-05-10T13:51:44;4.60;;;1.83;;
51122;SDS011;37162;41.724;13.346;2023-05-10T13:54:10;2.80;;;1.80;;
51122;SDS011;37162;41.724;13.346;2023-05-10T13:56:35;1.70;;;1.60;;
51122;SDS011;37162;41.724;13.346;2023-05-10T13:59:01;3.65;;;1.77;;
51122;SDS011;37162;41.724;13.346;2023-05-10T14:01:26;6.10;;;1.95;;
51122;SDS011;37162;41.724;13.346;2023-05-10T14:03:52;2.10;;;1.90;;
51122;SDS011;37162;41.724;13.346;2023-05-10T14:06:18;3.47;;;2.28;;
51122;SDS011;37162;41.724;13.346;2023-05-10T14:08:44;3.00;;;1.70;;
51122;SDS011;37162;41.724;13.346;2023-05-10T14:11:10;3.90;;;2.03;;
51122;SDS011;37162;41.724;13.346;2023-05-10T14:13:36;1.85;;;1.75;;
51122;SDS011;37162;41.724;13.346;2023-05-10T14:16:02;1.75;;;1.63;;
51122;SDS011;37162;41.724;13.346;2023-05-10T14:18:28;1.75;;;1.52;;
51122;SDS011;37162;41.724;13.346;2023-05-10T14:20:53;2.00;;;1.65;;
51122;SDS011;37162;41.724;13.346;2023-05-10T14:23:19;1.60;;;1.50;;
51122;SDS011;37162;41.724;13.346;2023-05-10T14:25:49;1.42;;;1.33;;
51122;SDS011;37162;41.724;13.346;2023-05-10T14:28:16;2.55;;;1.55;;
51122;SDS011;37162;41.724;13.346;2023-05-10T14:30:42;2.10;;;1.67;;
51122;SDS011;37162;41.724;13.346;2023-05-10T14:33:08;1.80;;;1.65;;
51122;SDS011;37162;41.724;13.346;2023-05-10T14:35:33;1.63;;;1.52;;
51122;SDS011;37162;41.724;13.346;2023-05-10T14:37:59;1.50;;;1.30;;
51122;SDS011;37162;41.724;13.346;2023-05-10T14:40:24;2.00;;;1.52;;
51122;SDS011;37162;41.724;13.346;2023-05-10T14:42:50;1.58;;;1.48;;
51122;SDS011;37162;41.724;13.346;2023-05-10T14:45:17;1.65;;;1.40;;
51122;SDS011;37162;41.724;13.346;2023-05-10T14:47:43;1.50;;;1.40;;
51122;SDS011;37162;41.724;13.346;2023-05-10T14:50:08;2.75;;;2.00;;
51122;SDS011;37162;41.724;13.346;2023-05-10T14:52:34;1.60;;;1.50;;
51122;SDS011;37162;41.724;13.346;2023-05-10T14:55:00;1.67;;;1.58;;
51122;SDS011;37162;41.724;13.346;2023-05-10T14:57:26;1.65;;;1.40;;
51122;SDS011;37162;41.724;13.346;2023-05-10T14:59:54;2.25;;;1.42;;
51122;SDS011;37162;41.724;13.346;2023-05-10T15:02:20;1.73;;;1.58;;
51122;SDS011;37162;41.724;13.346;2023-05-10T15:04:46;2.05;;;1.63;;
51122;SDS011;37162;41.724;13.346;2023-05-10T15:07:11;1.58;;;1.48;;
51122;SDS011;37162;41.724;13.346;2023-05-10T15:09:39;2.35;;;1.92;;
51122;SDS011;37162;41.724;13.346;2023-05-10T15:12:04;2.08;;;1.50;;
51122;SDS011;37162;41.724;13.346;2023-05-10T15:14:30;1.70;;;1.60;;
51122;SDS011;37162;41.724;13.346;2023-05-10T15:16:56;2.63;;;1.70;;
51122;SDS011;37162;41.724;13.346;2023-05-10T15:19:21;2.22;;;1.50;;
51122;SDS011;37162;41.724;13.346;2023-05-10T15:21:47;3.10;;;1.80;;
51122;SDS011;37162;41.724;13.346;2023-05-10T15:24:12;2.17;;;1.55;;